Time;durP1;ratioP1;P1;durP2;ratioP2;P2;SDS_P1;SDS_P2;PMS_P1;PMS_P2;Temp;Humidity;BMP_temperature;BMP_pressure;BME280_temperature;BME280_humidity;BME280_pressure;Samples;Min_cycle;Max_cycle;Signal;HPM_P1;HPM_P2
2024/04/06 00:00:43;;;;;;;3.83;1.13;;;;;;;11.97;100.00;97787.41;6234409;28;20194;-51
2024/04/06 00:03:48;;;;;;;1.57;0.77;;;;;;;12.00;100.00;97788.78;6231067;28;20215;-54
2024/04/06 00:06:51;;;;;;;4.20;1.33;;;;;;;12.22;100.00;97786.13;6244913;28;20188;-52
2024/04/06 00:09:52;;;;;;;4.90;1.30;;;;;;;12.30;100.00;97799.00;6241273;28;20225;-53
2024/04/06 00:12:54;;;;;;;2.40;1.10;;;;;;;12.06;100.00;97799.25;6244575;28;20208;-53
2024/04/06 00:15:55;;;;;;;7.03;0.87;;;;;;;12.25;100.00;97799.75;6225030;28;20687;-55
2024/04/06 00:18:57;;;;;;;1.07;0.90;;;;;;;12.18;100.00;97798.34;6231860;28;20333;-53
2024/04/06 00:21:58;;;;;;;2.80;1.10;;;;;;;12.29;100.00;97806.22;6224978;28;20192;-52
2024/04/06 00:25:00;;;;;;;1.93;0.90;;;;;;;12.12;100.00;97794.81;6234718;28;20227;-54
2024/04/06 00:28:02;;;;;;;0.70;0.60;;;;;;;12.09;100.00;97797.97;6237826;28;20306;-53
2024/04/06 00:31:03;;;;;;;1.90;0.60;;;;;;;12.17;100.00;97804.72;6231711;28;20289;-54
2024/04/06 00:34:05;;;;;;;1.23;1.00;;;;;;;12.00;100.00;97792.25;6274310;28;20301;-53
2024/04/06 00:37:07;;;;;;;2.87;0.80;;;;;;;12.04;100.00;97806.72;6240531;28;20278;-53
2024/04/06 00:40:08;;;;;;;1.57;1.07;;;;;;;12.06;100.00;97796.59;6247580;28;20191;-52
2024/04/06 00:43:12;;;;;;;3.73;0.80;;;;;;;12.31;100.00;97814.78;6235957;28;20187;-51
2024/04/06 00:46:13;;;;;;;3.40;0.80;;;;;;;12.26;100.00;97805.91;6244076;28;20279;-53
2024/04/06 00:49:14;;;;;;;2.13;1.67;;;;;;;12.33;100.00;97811.88;6237435;28;20282;-51
2024/04/06 00:52:16;;;;;;;1.43;0.77;;;;;;;12.11;100.00;97810.00;6241183;28;20269;-51
2024/04/06 00:55:17;;;;;;;2.73;1.20;;;;;;;12.17;100.00;97812.72;6248080;28;20195;-54
2024/04/06 00:58:19;;;;;;;9.60;1.20;;;;;;;12.19;100.00;97811.44;6235565;28;20219;-51
2024/04/06 01:01:21;;;;;;;5.30;1.57;;;;;;;12.38;100.00;97818.09;6238783;28;20244;-52
2024/04/06 01:04:22;;;;;;;0.60;0.60;;;;;;;12.34;100.00;97816.16;6233249;28;20211;-54
2024/04/06 01:07:23;;;;;;;2.27;0.70;;;;;;;12.31;100.00;97804.09;6245550;28;20652;-54
2024/04/06 01:10:24;;;;;;;3.87;1.90;;;;;;;12.40;100.00;97815.16;6240141;28;20287;-54
2024/04/06 01:13:26;;;;;;;8.07;1.00;;;;;;;12.37;100.00;97810.31;6238392;28;20230;-49
2024/04/06 01:16:28;;;;;;;4.47;1.10;;;;;;;12.34;100.00;97808.16;6220589;28;20726;-53
2024/04/06 01:19:29;;;;;;;2.53;0.90;;;;;;;12.28;100.00;97817.16;6236355;28;20770;-53
2024/04/06 01:22:30;;;;;;;5.57;2.10;;;;;;;12.62;100.00;97813.28;6237262;28;20619;-52
2024/04/06 01:25:32;;;;;;;2.47;1.57;;;;;;;12.37;100.00;97826.34;6242522;28;20290;-52
2024/04/06 01:28:33;;;;;;;1.50;0.70;;;;;;;12.25;100.00;97828.34;6237375;28;20278;-53
2024/04/06 01:31:34;;;;;;;1.93;0.73;;;;;;;12.27;100.00;97821.69;6238824;28;20218;-53
2024/04/06 01:34:35;;;;;;;8.43;0.93;;;;;;;12.25;100.00;97814.97;6240563;28;20250;-53
2024/04/06 01:37:37;;;;;;;3.50;1.43;;;;;;;12.51;100.00;97811.56;6234774;28;20202;-51
2024/04/06 01:40:38;;;;;;;0.97;0.73;;;;;;;12.52;100.00;97810.50;6239329;28;20276;-51
2024/04/06 01:43:39;;;;;;;2.37;0.60;;;;;;;12.30;100.00;97794.47;6238427;28;20207;-51
2024/04/06 01:46:41;;;;;;;2.30;0.80;;;;;;;12.22;100.00;97794.94;6245928;28;20268;-54
2024/04/06 01:49:48;;;;;;;1.27;0.70;;;;;;;12.46;100.00;97800.78;6229492;28;20196;-52
2024/04/06 01:52:53;;;;;;;0.73;0.63;;;;;;;12.44;100.00;97807.44;6242446;28;20660;-53
2024/04/06 01:55:55;;;;;;;0.90;0.60;;;;;;;12.35;100.00;97810.56;6238768;28;20239;-53
2024/04/06 01:58:59;;;;;;;4.50;0.60;;;;;;;12.38;100.00;97798.56;6239208;28;20252;-52
2024/04/06 02:02:02;;;;;;;3.00;1.07;;;;;;;12.55;100.00;97807.31;6247419;28;20187;-53
2024/04/06 02:05:04;;;;;;;2.20;1.20;;;;;;;12.57;100.00;97807.06;6241407;28;20201;-51
2024/04/06 02:08:06;;;;;;;6.27;1.10;;;;;;;12.59;100.00;97808.41;6236679;28;20195;-52
2024/04/06 02:11:08;;;;;;;4.03;0.80;;;;;;;12.53;100.00;97800.59;6240154;28;20230;-54
2024/04/06 02:14:10;;;;;;;2.87;0.73;;;;;;;12.64;100.00;97796.97;6227890;28;20214;-53
2024/04/06 02:17:13;;;;;;;4.37;1.03;;;;;;;12.38;100.00;97783.34;6242387;28;20191;-52
2024/04/06 02:20:15;;;;;;;2.77;0.70;;;;;;;12.61;100.00;97806.31;6227497;28;20605;-56
2024/04/06 02:23:16;;;;;;;4.73;0.60;;;;;;;12.60;100.00;97812.69;6225203;28;20192;-54
2024/04/06 02:26:17;;;;;;;0.83;0.60;;;;;;;12.55;100.00;97809.16;6229805;28;20211;-53
2024/04/06 02:29:19;;;;;;;3.13;0.80;;;;;;;12.68;100.00;97814.13;6228593;28;20199;-55
2024/04/06 02:32:21;;;;;;;0.80;0.80;;;;;;;12.56;100.00;97810.78;6231034;28;20200;-54
2024/04/06 02:35:23;;;;;;;1.73;0.70;;;;;;;12.57;100.00;97817.75;6229244;28;20200;-54
2024/04/06 02:38:24;;;;;;;2.20;0.77;;;;;;;12.84;100.00;97810.53;6225743;28;20241;-52
2024/04/06 02:41:26;;;;;;;2.20;0.90;;;;;;;12.61;100.00;97808.16;6236451;28;20191;-53
2024/04/06 02:44:27;;;;;;;1.03;0.73;;;;;;;12.78;100.00;97818.78;6229631;28;20200;-52
2024/04/06 02:47:29;;;;;;;3.17;1.00;;;;;;;12.61;100.00;97814.34;6227776;28;20197;-52
2024/04/06 02:50:30;;;;;;;1.90;0.60;;;;;;;12.31;100.00;97788.06;6236453;28;20201;-55
2024/04/06 02:53:32;;;;;;;2.70;0.93;;;;;;;12.44;100.00;97810.94;6235642;28;20258;-52
2024/04/06 02:56:33;;;;;;;2.67;0.80;;;;;;;12.48;100.00;97825.41;6228651;28;20239;-53
2024/04/06 02:59:34;;;;;;;3.10;0.60;;;;;;;12.73;100.00;97829.41;6233090;28;20734;-52
2024/04/06 03:02:35;;;;;;;4.27;0.83;;;;;;;12.50;100.00;97827.81;6236492;28;20206;-54
2024/04/06 03:05:36;;;;;;;2.10;0.83;;;;;;;12.62;100.00;97823.16;6223093;28;20196;-53
2024/04/06 03:08:37;;;;;;;1.53;0.70;;;;;;;12.73;100.00;97806.16;6230809;28;20702;-54
2024/04/06 03:11:39;;;;;;;2.17;0.70;;;;;;;12.69;100.00;97839.00;6232054;28;20195;-53
2024/04/06 03:14:40;;;;;;;3.20;0.80;;;;;;;12.44;100.00;97848.34;6234776;28;20257;-54
2024/04/06 03:17:44;;;;;;;2.93;0.73;;;;;;;12.28;100.00;97823.31;6236876;28;20199;-53
2024/04/06 03:20:45;;;;;;;1.37;0.80;;;;;;;12.50;100.00;97842.00;6236667;28;20228;-52
2024/04/06 03:23:47;;;;;;;1.27;0.70;;;;;;;12.31;100.00;97840.69;6225962;28;20397;-54
2024/04/06 03:26:48;;;;;;;2.13;0.80;;;;;;;12.32;100.00;97835.13;6232604;28;20202;-54
2024/04/06 03:29:54;;;;;;;3.93;0.90;;;;;;;12.20;100.00;97814.91;6238069;28;20567;-52
2024/04/06 03:32:56;;;;;;;4.03;0.87;;;;;;;12.48;100.00;97845.97;6232948;28;20670;-53
2024/04/06 03:35:57;;;;;;;1.03;0.70;;;;;;;12.31;100.00;97844.16;6226924;28;20675;-52
2024/04/06 03:38:59;;;;;;;3.37;0.70;;;;;;;12.37;100.00;97835.19;6232188;28;20199;-52
2024/04/06 03:42:00;;;;;;;3.87;0.80;;;;;;;12.67;100.00;97841.91;6237739;28;20566;-54
2024/04/06 03:45:03;;;;;;;1.93;0.87;;;;;;;12.56;100.00;97850.88;6231484;28;20199;-53
2024/04/06 03:48:05;;;;;;;2.40;0.90;;;;;;;12.54;100.00;97848.44;6231417;28;20193;-54
2024/04/06 03:51:07;;;;;;;3.00;0.70;;;;;;;12.65;100.00;97852.84;6231182;28;20200;-53
2024/04/06 03:54:08;;;;;;;3.30;0.80;;;;;;;12.41;100.00;97856.84;6223684;28;20231;-53
2024/04/06 03:57:10;;;;;;;2.70;1.17;;;;;;;12.25;100.00;97845.16;6235005;28;20196;-54
2024/04/06 04:00:14;;;;;;;2.57;0.93;;;;;;;12.23;100.00;97854.50;6227312;28;20322;-53
2024/04/06 04:03:19;;;;;;;2.43;0.70;;;;;;;12.20;100.00;97854.97;6233740;28;20295;-54
2024/04/06 04:06:24;;;;;;;3.40;0.77;;;;;;;12.23;100.00;97857.16;6229792;28;20192;-53
2024/04/06 04:09:26;;;;;;;2.80;0.80;;;;;;;12.21;100.00;97867.28;6235397;28;20197;-53
2024/04/06 04:12:30;;;;;;;4.90;0.97;;;;;;;12.11;100.00;97852.72;6231580;28;20238;-52
2024/04/06 04:15:32;;;;;;;0.70;0.60;;;;;;;12.08;100.00;97855.91;6234084;28;20739;-54
2024/04/06 04:18:33;;;;;;;6.00;1.00;;;;;;;12.13;100.00;97860.50;6235581;28;20265;-52
2024/04/06 04:21:35;;;;;;;2.27;0.90;;;;;;;12.10;100.00;97869.00;6225739;28;20235;-54
2024/04/06 04:24:36;;;;;;;3.13;1.03;;;;;;;12.06;100.00;97876.69;6247890;28;20194;-52
2024/04/06 04:27:37;;;;;;;3.73;1.00;;;;;;;12.11;100.00;97870.63;6225165;28;20266;-53
2024/04/06 04:30:38;;;;;;;5.47;0.90;;;;;;;12.21;100.00;97877.97;6239750;28;20246;-53
2024/04/06 04:33:40;;;;;;;2.03;0.67;;;;;;;12.28;100.00;97874.06;6240309;28;20226;-52
2024/04/06 04:36:43;;;;;;;2.07;0.60;;;;;;;12.42;100.00;97868.34;6240028;28;20231;-52
2024/04/06 04:39:44;;;;;;;1.57;0.80;;;;;;;12.56;100.00;97885.59;6236789;28;20577;-54
2024/04/06 04:42:45;;;;;;;3.13;0.90;;;;;;;12.65;100.00;97876.09;6242553;28;20183;-53
2024/04/06 04:45:47;;;;;;;2.93;0.83;;;;;;;12.76;100.00;97885.03;6239944;28;20195;-53
2024/04/06 04:48:56;;;;;;;2.20;1.00;;;;;;;12.75;100.00;97892.25;6244681;28;20677;-54
2024/04/06 04:51:57;;;;;;;1.10;0.80;;;;;;;12.66;100.00;97888.44;6242221;28;20191;-51
2024/04/06 04:55:01;;;;;;;2.50;0.83;;;;;;;12.81;100.00;97891.25;6259317;28;20184;-53
2024/04/06 04:58:03;;;;;;;2.30;0.60;;;;;;;12.75;100.00;97891.44;6239070;28;20196;-53
2024/04/06 05:01:04;;;;;;;1.93;0.77;;;;;;;12.55;100.00;97890.16;6242466;28;20200;-52
2024/04/06 05:04:05;;;;;;;0.60;0.60;;;;;;;12.82;100.00;97892.06;6232228;28;20202;-54
2024/04/06 05:07:06;;;;;;;1.73;0.83;;;;;;;13.04;100.00;97898.16;6238555;28;20701;-52
2024/04/06 05:10:11;;;;;;;0.73;0.70;;;;;;;12.77;100.00;97908.84;6240711;28;20210;-53
2024/04/06 05:13:14;;;;;;;4.57;0.80;;;;;;;13.03;100.00;97915.28;6238441;28;20199;-52
2024/04/06 05:16:17;;;;;;;3.80;2.50;;;;;;;13.11;100.00;97930.09;6243042;28;20199;-53
2024/04/06 05:19:18;;;;;;;6.30;1.20;;;;;;;13.40;100.00;97915.44;6242687;28;20750;-53
2024/04/06 05:22:20;;;;;;;2.20;1.90;;;;;;;13.23;100.00;97925.41;6237317;28;20180;-55
2024/04/06 05:25:21;;;;;;;2.23;1.10;;;;;;;13.24;100.00;97931.56;6236426;28;20219;-54
2024/04/06 05:28:25;;;;;;;6.17;2.30;;;;;;;13.00;100.00;97906.94;6242835;28;20192;-54
2024/04/06 05:31:26;;;;;;;2.70;1.10;;;;;;;13.21;100.00;97924.03;6236546;28;20195;-53
2024/04/06 05:34:27;;;;;;;1.77;0.60;;;;;;;13.63;100.00;97916.94;6239432;28;20579;-54
2024/04/06 05:37:32;;;;;;;7.00;1.87;;;;;;;13.53;100.00;97911.50;6238181;28;20201;-53
2024/04/06 05:40:40;;;;;;;2.77;0.77;;;;;;;13.35;100.00;97911.91;6235406;28;20188;-54
2024/04/06 05:43:41;;;;;;;2.13;0.93;;;;;;;13.01;100.00;97866.59;6244309;28;20180;-52
2024/04/06 05:46:43;;;;;;;1.37;0.90;;;;;;;13.37;100.00;97915.13;6277395;28;20199;-54
2024/04/06 05:49:44;;;;;;;0.80;0.70;;;;;;;13.45;100.00;97913.84;6238500;28;20334;-53
2024/04/06 05:52:45;;;;;;;3.23;0.90;;;;;;;13.60;100.00;97922.81;6234742;28;20606;-49
2024/04/06 05:55:46;;;;;;;15.80;7.83;;;;;;;13.62;100.00;97912.66;6238300;28;20281;-52
2024/04/06 05:58:47;;;;;;;2.90;1.50;;;;;;;13.66;100.00;97924.47;6228912;28;20271;-53
2024/04/06 06:01:48;;;;;;;2.77;0.90;;;;;;;13.97;100.00;97927.38;6236762;28;20218;-55
2024/04/06 06:04:50;;;;;;;5.53;1.47;;;;;;;14.11;100.00;97931.22;6236879;28;20187;-52
2024/04/06 06:07:51;;;;;;;1.43;0.70;;;;;;;13.90;100.00;97910.72;6237393;28;20183;-53
2024/04/06 06:10:52;;;;;;;3.33;1.07;;;;;;;14.05;100.00;97940.28;6232753;28;20590;-51
2024/04/06 06:13:53;;;;;;;2.57;1.10;;;;;;;14.20;100.00;97947.63;6241037;28;20215;-51
2024/04/06 06:16:55;;;;;;;0.63;0.63;;;;;;;14.55;99.56;97940.88;6237886;28;20666;-53
2024/04/06 06:19:57;;;;;;;3.03;1.10;;;;;;;14.61;98.19;97951.38;6224732;28;20231;-50
2024/04/06 06:22:59;;;;;;;4.13;1.80;;;;;;;14.65;100.00;97949.78;6225655;28;20185;-53
2024/04/06 06:26:04;;;;;;;0.80;0.67;;;;;;;14.97;95.96;97940.78;6228156;28;20845;-52
2024/04/06 06:29:06;;;;;;;3.03;0.83;;;;;;;14.91;97.04;97931.91;6225161;28;20215;-53
2024/04/06 06:32:08;;;;;;;0.60;0.60;;;;;;;15.15;98.73;97945.66;6232876;28;20221;-52
2024/04/06 06:35:11;;;;;;;1.80;0.80;;;;;;;15.17;96.89;97932.81;6230877;28;20201;-53
2024/04/06 06:38:12;;;;;;;1.63;0.73;;;;;;;15.22;99.64;97942.72;6240237;28;20238;-53
2024/04/06 06:41:14;;;;;;;0.60;0.60;;;;;;;15.45;97.82;97930.69;6237221;28;20225;-52
2024/04/06 06:44:15;;;;;;;5.37;2.90;;;;;;;15.68;97.50;97929.41;6235616;28;20217;-51
2024/04/06 06:47:16;;;;;;;1.63;0.87;;;;;;;15.77;98.93;97937.72;6237184;28;20664;-52
2024/04/06 06:50:17;;;;;;;2.00;0.80;;;;;;;15.96;98.10;97953.03;6239923;28;20207;-52
2024/04/06 06:53:19;;;;;;;1.33;0.80;;;;;;;15.94;97.93;97938.25;6237903;28;20204;-53
2024/04/06 06:56:22;;;;;;;0.60;0.60;;;;;;;16.08;97.95;97955.44;6233863;28;20269;-53
2024/04/06 06:59:23;;;;;;;1.37;0.80;;;;;;;16.21;98.72;97956.78;6233617;28;20547;-53
2024/04/06 07:02:25;;;;;;;0.80;0.70;;;;;;;16.35;96.94;97957.00;6236091;28;20188;-53
2024/04/06 07:05:27;;;;;;;2.03;0.70;;;;;;;16.52;93.42;97961.00;6232406;28;20219;-53
2024/04/06 07:08:28;;;;;;;2.33;0.70;;;;;;;16.76;94.06;97960.44;6235613;28;20223;-53
2024/04/06 07:11:30;;;;;;;1.93;0.77;;;;;;;16.87;94.80;97940.47;6235830;28;20200;-53
2024/04/06 07:14:31;;;;;;;1.50;0.73;;;;;;;17.14;93.14;97955.41;6241112;28;20227;-52
2024/04/06 07:17:32;;;;;;;1.40;0.87;;;;;;;17.05;86.91;97922.91;6224209;28;20196;-52
2024/04/06 07:20:33;;;;;;;1.20;0.87;;;;;;;17.39;83.51;97957.97;6232717;28;20223;-54
2024/04/06 07:23:35;;;;;;;1.57;0.80;;;;;;;17.60;81.97;97958.63;6217527;28;20216;-52
2024/04/06 07:26:38;;;;;;;1.57;1.10;;;;;;;17.73;85.92;97951.81;6236889;28;20211;-49
2024/04/06 07:29:40;;;;;;;2.10;1.07;;;;;;;17.91;83.98;97955.72;6233135;28;20714;-52
2024/04/06 07:32:41;;;;;;;1.93;1.10;;;;;;;18.02;83.00;97957.25;6235763;28;20784;-52
2024/04/06 07:35:42;;;;;;;1.30;1.03;;;;;;;18.15;83.79;97953.91;6230800;28;20192;-54
2024/04/06 07:38:43;;;;;;;1.07;0.80;;;;;;;18.37;82.39;97966.09;6233125;28;20195;-53
2024/04/06 07:41:44;;;;;;;3.37;0.80;;;;;;;18.61;78.83;97955.31;6235495;28;20192;-52
2024/04/06 07:44:46;;;;;;;1.77;0.90;;;;;;;18.96;74.86;97949.53;6226481;28;20192;-51
2024/04/06 07:47:47;;;;;;;1.07;0.70;;;;;;;19.30;73.90;97949.34;6218577;28;20195;-54
2024/04/06 07:50:48;;;;;;;1.67;0.83;;;;;;;19.49;71.79;97956.66;6230099;28;20691;-53
2024/04/06 07:53:50;;;;;;;2.60;1.10;;;;;;;19.73;72.37;97962.78;6235195;28;20341;-50
2024/04/06 07:56:51;;;;;;;1.57;0.80;;;;;;;20.00;60.67;97961.28;6239051;28;20841;-54
2024/04/06 07:59:55;;;;;;;1.57;0.67;;;;;;;20.29;66.42;97961.84;6234777;28;20188;-54
2024/04/06 08:02:56;;;;;;;2.37;0.90;;;;;;;20.37;59.19;97968.50;6232862;28;20234;-53
2024/04/06 08:06:01;;;;;;;1.63;0.90;;;;;;;20.34;64.87;97961.78;6233980;28;20199;-50
2024/04/06 08:09:02;;;;;;;1.90;0.97;;;;;;;20.39;57.20;97973.59;6218343;28;20204;-52
2024/04/06 08:12:03;;;;;;;1.93;1.00;;;;;;;20.69;57.16;97972.25;6236766;28;20682;-53
2024/04/06 08:15:05;;;;;;;1.63;1.00;;;;;;;20.84;50.94;97966.56;6229649;28;20218;-53
2024/04/06 08:18:06;;;;;;;1.17;0.90;;;;;;;21.08;54.34;97971.75;6232061;28;20187;-52
2024/04/06 08:21:08;;;;;;;1.40;1.00;;;;;;;21.34;53.92;97975.56;6238168;28;20828;-53
2024/04/06 08:24:10;;;;;;;2.27;0.90;;;;;;;21.43;56.55;97977.53;6246703;28;20192;-53
2024/04/06 08:27:11;;;;;;;2.83;1.23;;;;;;;21.59;56.17;97959.81;6223552;28;20626;-51
2024/04/06 08:30:12;;;;;;;1.13;0.90;;;;;;;21.76;54.61;97970.78;6242375;28;20782;-52
2024/04/06 08:33:13;;;;;;;2.27;1.20;;;;;;;21.96;57.23;97971.41;6248071;28;20249;-53
2024/04/06 08:36:15;;;;;;;1.50;1.10;;;;;;;22.24;48.75;97967.47;6242940;28;20199;-52
2024/04/06 08:39:16;;;;;;;2.30;0.97;;;;;;;22.45;45.42;97975.09;6236105;28;20196;-53
2024/04/06 08:42:19;;;;;;;1.17;0.80;;;;;;;22.46;47.69;97954.97;6240113;28;20190;-52
2024/04/06 08:45:21;;;;;;;1.93;1.00;;;;;;;22.40;48.27;97968.69;6236805;28;20230;-53
2024/04/06 08:48:23;;;;;;;2.75;0.90;;;;;;;22.45;44.78;97964.22;6232001;28;20712;-53
2024/04/06 08:51:29;;;;;;;1.20;0.90;;;;;;;22.56;43.52;97966.38;6233858;28;20203;-51
2024/04/06 08:54:31;;;;;;;1.40;0.87;;;;;;;22.47;43.63;97978.31;6234041;28;20207;-52
2024/04/06 08:57:34;;;;;;;2.63;1.00;;;;;;;22.50;44.00;97973.03;6244028;28;20282;-53
2024/04/06 09:00:39;;;;;;;1.53;1.10;;;;;;;22.51;43.24;97971.94;6247664;28;20666;-54
2024/04/06 09:03:40;;;;;;;1.10;0.90;;;;;;;22.38;44.16;97981.78;6244636;28;20184;-53
2024/04/06 09:06:44;;;;;;;2.50;0.87;;;;;;;22.46;41.31;97988.34;6239396;28;20679;-53
2024/04/06 09:09:45;;;;;;;2.90;1.20;;;;;;;22.63;41.40;97977.59;6233766;28;20199;-52
2024/04/06 09:12:48;;;;;;;1.27;0.80;;;;;;;22.49;43.38;97982.31;6227427;28;20914;-54
2024/04/06 09:15:50;;;;;;;2.00;1.07;;;;;;;22.34;42.85;97969.94;6239034;28;20199;-52
2024/04/06 09:18:53;;;;;;;2.50;1.20;;;;;;;22.62;45.37;97975.19;6237906;28;20235;-53
2024/04/06 09:21:56;;;;;;;1.70;0.90;;;;;;;22.86;45.80;97972.09;6236960;28;20291;-53
2024/04/06 09:24:57;;;;;;;1.83;0.90;;;;;;;22.91;46.14;97975.50;6238278;28;20182;-53
2024/04/06 09:27:59;;;;;;;2.30;1.10;;;;;;;23.05;42.77;97974.53;6236852;28;20183;-52
2024/04/06 09:31:04;;;;;;;1.45;0.80;;;;;;;23.08;42.33;97973.94;6243346;28;20419;-53
2024/04/06 09:34:05;;;;;;;3.88;1.27;;;;;;;23.10;41.42;97974.41;6237140;28;20299;-51
2024/04/06 09:37:10;;;;;;;4.95;1.15;;;;;;;23.00;41.47;97969.25;6246898;28;20572;-53
2024/04/06 09:40:13;;;;;;;1.48;1.05;;;;;;;22.81;40.83;97974.94;6244597;28;20212;-53
2024/04/06 09:43:15;;;;;;;1.38;0.80;;;;;;;22.92;40.84;97965.41;6243227;28;20210;-53
2024/04/06 09:46:19;;;;;;;1.63;0.90;;;;;;;22.83;41.99;97951.78;6238811;28;20195;-52
2024/04/06 09:49:24;;;;;;;1.55;0.77;;;;;;;22.77;42.66;97954.97;6245323;28;20551;-53
2024/04/06 09:52:28;;;;;;;2.70;1.20;;;;;;;22.89;40.92;97945.09;6246506;28;20816;-55
2024/04/06 09:55:31;;;;;;;2.63;1.10;;;;;;;22.80;41.16;97946.97;6240126;28;20188;-53
2024/04/06 09:58:33;;;;;;;1.40;1.10;;;;;;;22.91;40.81;97936.66;6237318;28;20593;-55
2024/04/06 10:01:45;;;;;;;2.58;1.50;;;;;;;23.11;42.27;97932.53;6242989;28;20203;-53
2024/04/06 10:04:54;;;;;;;1.38;1.02;;;;;;;23.21;40.66;97932.22;6247654;28;20188;-53
2024/04/06 10:07:55;;;;;;;1.80;0.88;;;;;;;23.20;40.31;97941.47;6246819;28;20569;-53
2024/04/06 10:11:00;;;;;;;1.30;0.80;;;;;;;23.21;39.39;97932.22;6222814;28;20192;-53
2024/04/06 10:14:04;;;;;;;1.77;1.30;;;;;;;23.41;40.64;97928.09;6235841;28;20212;-53
2024/04/06 10:17:08;;;;;;;2.17;0.90;;;;;;;23.29;42.71;97936.06;6238949;28;20198;-53
2024/04/06 10:20:11;;;;;;;2.08;1.20;;;;;;;23.37;43.88;97938.00;6232284;28;20232;-52
2024/04/06 10:23:13;;;;;;;1.73;1.20;;;;;;;23.30;41.86;97934.94;6231343;28;20561;-51
2024/04/06 10:26:20;;;;;;;2.22;1.33;;;;;;;23.38;40.69;97931.44;6223662;28;20199;-54
2024/04/06 10:29:22;;;;;;;1.48;1.08;;;;;;;23.43;40.46;97934.00;6230018;28;20236;-54
2024/04/06 10:32:24;;;;;;;2.25;1.30;;;;;;;23.29;41.34;97925.19;6229598;28;20195;-53
2024/04/06 10:35:28;;;;;;;1.23;0.90;;;;;;;23.11;41.90;97921.66;6211329;28;20200;-53
2024/04/06 10:38:29;;;;;;;3.55;1.15;;;;;;;23.48;42.08;97919.44;6229313;28;20196;-53
2024/04/06 10:41:31;;;;;;;1.23;1.00;;;;;;;23.60;42.98;97917.69;6212216;28;20286;-53
2024/04/06 10:44:33;;;;;;;1.90;1.05;;;;;;;23.76;41.96;97909.88;6237496;28;20184;-53
2024/04/06 10:47:35;;;;;;;3.63;1.23;;;;;;;23.70;40.62;97888.59;6225975;28;20188;-52
2024/04/06 10:50:36;;;;;;;1.40;1.20;;;;;;;23.93;40.48;97892.69;6233730;28;20193;-53
2024/04/06 10:53:37;;;;;;;4.45;1.40;;;;;;;24.06;41.11;97880.03;6213650;28;20200;-53
2024/04/06 10:56:40;;;;;;;2.53;1.10;;;;;;;23.49;41.63;97882.97;6234335;28;20193;-54
2024/04/06 10:59:41;;;;;;;2.30;1.20;;;;;;;23.81;44.14;97890.66;6219947;28;20243;-55
2024/04/06 11:02:43;;;;;;;2.03;1.17;;;;;;;23.91;41.92;97878.63;6223377;28;20242;-52
2024/04/06 11:05:44;;;;;;;1.92;1.00;;;;;;;23.98;41.61;97900.69;6235883;28;20197;-53
2024/04/06 11:08:46;;;;;;;1.35;1.00;;;;;;;23.95;41.94;97890.47;6234092;28;20219;-54
2024/04/06 11:11:48;;;;;;;2.08;1.27;;;;;;;23.78;41.67;97896.72;6239272;28;20203;-55
2024/04/06 11:14:49;;;;;;;2.15;1.30;;;;;;;23.76;43.21;97901.69;6239392;28;20208;-59
2024/04/06 11:17:52;;;;;;;2.15;1.40;;;;;;;23.70;42.50;97866.84;6234366;28;20211;-52
2024/04/06 11:20:54;;;;;;;2.95;1.33;;;;;;;23.81;41.61;97893.38;6227428;28;20278;-55
2024/04/06 11:23:55;;;;;;;2.38;1.30;;;;;;;23.79;41.69;97889.34;6235329;28;20307;-54
2024/04/06 11:27:09;;;;;;;1.50;1.08;;;;;;;23.92;41.25;97891.91;6217800;28;20677;-51
2024/04/06 11:30:10;;;;;;;4.35;1.30;;;;;;;23.97;42.65;97885.47;6232753;28;20240;-53
2024/04/06 11:33:11;;;;;;;4.10;0.90;;;;;;;24.01;40.71;97880.19;6231006;28;20424;-52
2024/04/06 11:36:13;;;;;;;2.67;1.08;;;;;;;23.88;42.12;97882.78;6216734;28;20212;-53
2024/04/06 11:39:15;;;;;;;2.33;1.20;;;;;;;23.62;40.83;97874.63;6229282;28;20431;-54
2024/04/06 11:42:19;;;;;;;1.90;1.15;;;;;;;23.83;41.23;97866.63;6230477;28;20607;-50
2024/04/06 11:45:24;;;;;;;1.08;0.80;;;;;;;24.02;40.56;97860.81;6221368;28;20223;-52
2024/04/06 11:48:25;;;;;;;1.27;1.10;;;;;;;23.90;39.76;97847.91;6237995;28;20184;-54
2024/04/06 11:51:27;;;;;;;1.23;0.88;;;;;;;24.03;39.31;97864.34;6223261;28;20192;-54
2024/04/06 11:54:29;;;;;;;1.60;1.20;;;;;;;24.21;39.06;97876.78;6225486;28;20259;-53
2024/04/06 11:57:30;;;;;;;1.95;0.93;;;;;;;24.36;38.54;97878.97;6229169;28;20196;-54
2024/04/06 12:00:38;;;;;;;3.00;0.90;;;;;;;24.36;38.97;97878.19;6231174;28;20203;-54
2024/04/06 12:03:40;;;;;;;1.00;0.82;;;;;;;24.49;39.05;97877.16;6216470;28;20312;-52
2024/04/06 12:06:42;;;;;;;2.33;0.88;;;;;;;24.22;38.18;97872.91;6227624;28;20924;-51
2024/04/06 12:09:43;;;;;;;2.78;1.10;;;;;;;24.17;38.87;97873.88;6236285;28;20196;-53
2024/04/06 12:12:45;;;;;;;2.30;1.25;;;;;;;24.05;38.00;97868.34;6233579;28;20280;-52
2024/04/06 12:15:46;;;;;;;2.03;1.02;;;;;;;24.10;38.57;97872.81;6229435;28;20220;-55
2024/04/06 12:18:51;;;;;;;1.92;1.10;;;;;;;24.15;38.82;97867.19;6242913;28;20245;-54
2024/04/06 12:21:54;;;;;;;4.75;1.08;;;;;;;24.37;38.36;97883.28;6240235;28;20194;-54
2024/04/06 12:24:56;;;;;;;1.15;1.05;;;;;;;24.28;38.60;97836.22;6238943;28;20659;-49
2024/04/06 12:27:57;;;;;;;2.45;1.20;;;;;;;24.42;39.46;97850.44;6239699;28;20211;-55
2024/04/06 12:30:58;;;;;;;2.03;1.13;;;;;;;24.42;39.18;97853.16;6244310;28;20219;-55
2024/04/06 12:33:59;;;;;;;1.65;1.20;;;;;;;24.36;38.37;97850.94;6243702;28;20222;-54
2024/04/06 12:37:02;;;;;;;2.50;0.93;;;;;;;24.37;37.70;97860.72;6236524;28;20290;-54
2024/04/06 12:40:04;;;;;;;3.03;1.10;;;;;;;24.12;37.55;97862.38;6240465;28;20187;-52
2024/04/06 12:43:05;;;;;;;1.75;1.30;;;;;;;24.28;38.22;97857.19;6244735;28;20198;-53
2024/04/06 12:46:06;;;;;;;2.92;1.20;;;;;;;24.08;38.50;97845.09;6230686;28;20215;-54
2024/04/06 12:49:07;;;;;;;4.82;0.90;;;;;;;24.14;40.71;97852.00;6235729;28;20269;-52
2024/04/06 12:52:09;;;;;;;1.05;0.93;;;;;;;24.31;39.96;97845.66;6245725;28;20199;-54
2024/04/06 12:55:10;;;;;;;1.85;1.30;;;;;;;24.51;38.21;97836.78;6243697;28;20775;-52
2024/04/06 12:58:12;;;;;;;1.85;1.10;;;;;;;24.48;39.48;97853.75;6241977;28;20202;-54
2024/04/06 13:01:13;;;;;;;3.63;1.20;;;;;;;24.59;39.22;97849.56;6242995;28;20209;-52
2024/04/06 13:04:14;;;;;;;1.17;0.77;;;;;;;24.45;29.61;97835.38;6239232;28;20184;-52
2024/04/06 13:07:15;;;;;;;0.77;0.77;;;;;;;24.81;27.03;97834.03;6243314;28;20278;-52
2024/04/06 13:10:17;;;;;;;1.52;0.60;;;;;;;24.91;29.28;97834.44;6237171;28;20703;-51
2024/04/06 13:13:18;;;;;;;1.02;0.65;;;;;;;25.08;32.75;97827.31;6237808;28;20211;-52
2024/04/06 13:16:19;;;;;;;1.08;0.68;;;;;;;25.07;30.02;97833.84;6242289;28;20207;-52
2024/04/06 13:19:21;;;;;;;1.15;0.63;;;;;;;25.07;25.65;97831.94;6241102;28;20285;-51
2024/04/06 13:22:22;;;;;;;1.05;0.65;;;;;;;25.17;22.22;97815.19;6243697;28;20195;-53
2024/04/06 13:25:24;;;;;;;0.80;0.50;;;;;;;25.33;24.58;97829.00;6227102;28;20349;-52
2024/04/06 13:28:26;;;;;;;0.70;0.60;;;;;;;25.26;24.53;97831.47;6222016;28;20206;-53
2024/04/06 13:31:27;;;;;;;0.80;0.50;;;;;;;25.22;23.57;97819.63;6239799;28;20241;-52
2024/04/06 13:34:28;;;;;;;1.08;0.60;;;;;;;25.18;22.58;97826.91;6244791;28;20211;-51
2024/04/06 13:37:31;;;;;;;0.70;0.50;;;;;;;25.23;24.18;97825.91;6244913;28;20729;-52
2024/04/06 13:40:32;;;;;;;1.48;0.60;;;;;;;25.32;22.96;97826.59;6239691;28;20715;-54
2024/04/06 13:43:34;;;;;;;1.20;0.50;;;;;;;25.41;24.38;97830.84;6237308;28;20215;-51
2024/04/06 13:46:35;;;;;;;0.75;0.60;;;;;;;25.40;24.10;97818.34;6239239;28;20196;-52
2024/04/06 13:49:37;;;;;;;1.88;0.60;;;;;;;25.39;25.50;97815.97;6240086;28;20194;-54
2024/04/06 13:52:40;;;;;;;1.95;0.68;;;;;;;25.43;22.31;97812.22;6222530;28;20196;-52
2024/04/06 13:55:42;;;;;;;2.90;0.70;;;;;;;25.51;24.19;97813.25;6237353;28;20223;-51
2024/04/06 13:58:44;;;;;;;1.65;0.57;;;;;;;25.56;22.08;97814.97;6236474;28;20241;-53
2024/04/06 14:01:46;;;;;;;0.63;0.50;;;;;;;25.45;23.04;97809.94;6244274;28;20198;-51
2024/04/06 14:04:47;;;;;;;0.75;0.73;;;;;;;25.59;22.73;97800.66;6233091;28;20223;-53
2024/04/06 14:07:48;;;;;;;0.75;0.70;;;;;;;25.62;22.13;97809.00;6234528;28;20249;-52
2024/04/06 14:10:49;;;;;;;1.98;0.60;;;;;;;25.59;21.70;97814.31;6239020;28;20234;-52